createdAt,value
2019-05-22T00:02:21.187Z,72.04
2019-05-22T00:07:23.595Z,72.44
2019-05-22T00:12:27.935Z,72.67
2019-05-22T00:17:31.824Z,72.65
2019-05-22T00:22:37.062Z,72.68
2019-05-22T00:27:40.004Z,72.70
2019-05-22T00:32:42.995Z,71.72
2019-05-22T00:37:46.962Z,71.71
2019-05-22T00:43:03.330Z,72.21
2019-05-22T00:47:57.221Z,71.20
2019-05-22T00:53:01.695Z,72.44
2019-05-22T00:58:11.177Z,72.58
2019-05-22T01:03:17.163Z,71.47
2019-05-22T01:08:21.261Z,72.57
2019-05-22T01:13:26.531Z,71.72
2019-05-22T01:18:31.840Z,71.44
2019-05-22T01:23:36.390Z,71.83
2019-05-22T01:28:39.087Z,71.53
2019-05-22T01:33:58.871Z,72.03
2019-05-22T01:39:29.047Z,71.93
2019-05-22T01:44:33.825Z,72.04
2019-05-22T01:49:47.224Z,71.81
2019-05-22T01:54:52.008Z,72.15
2019-05-22T01:59:56.549Z,72.27
2019-05-22T02:05:01.455Z,72.44
2019-05-22T02:10:07.103Z,72.27
2019-05-22T02:15:11.606Z,72.10
2019-05-22T02:20:15.650Z,71.68
2019-05-22T02:25:20.375Z,71.90
2019-05-22T02:30:24.269Z,72.05
2019-05-22T02:35:26.922Z,72.08
2019-05-22T02:40:34.474Z,72.06
2019-05-22T02:45:37.089Z,72.60
2019-05-22T02:50:39.834Z,72.94
2019-05-22T02:55:42.757Z,73.08
2019-05-22T03:00:57.501Z,72.78
2019-05-22T03:06:03.634Z,72.88
2019-05-22T03:11:05.929Z,73.29
2019-05-22T03:16:09.151Z,73.22
2019-05-22T03:21:12.022Z,73.04
2019-05-22T03:26:18.773Z,73.44
2019-05-22T03:31:22.709Z,73.76
2019-05-22T03:36:27.089Z,73.71
2019-05-22T03:41:29.518Z,73.63
2019-05-22T03:46:43.621Z,73.85
2019-05-22T03:51:51.864Z,74.51
2019-05-22T03:56:54.922Z,74.50
2019-05-22T04:02:00.099Z,74.34
2019-05-22T04:07:05.357Z,75.21
2019-05-22T04:12:10.117Z,75.45
2019-05-22T04:17:14.368Z,75.09
2019-05-22T04:22:17.527Z,75.08
2019-05-22T04:27:21.948Z,75.46
2019-05-22T04:32:36.625Z,74.10
2019-05-22T04:37:41.400Z,75.25
2019-05-22T04:42:44.188Z,75.30
2019-05-22T04:47:56.643Z,75.22
2019-05-22T04:53:00.656Z,75.28
2019-05-22T04:58:08.007Z,74.98
2019-05-22T05:03:10.735Z,75.13
2019-05-22T05:08:14.836Z,73.60
2019-05-22T05:13:19.056Z,74.11
2019-05-22T05:18:22.196Z,74.23
2019-05-22T05:23:25.738Z,73.76
2019-05-22T05:28:28.984Z,74.00
2019-05-22T05:33:42.911Z,73.54
2019-05-22T05:38:46.393Z,72.71
2019-05-22T05:43:49.496Z,73.53
2019-05-22T05:48:51.682Z,74.20
2019-05-22T05:54:03.193Z,73.73
2019-05-22T05:59:07.619Z,74.00
2019-05-22T06:04:11.880Z,74.33
2019-05-22T06:09:19.628Z,74.98
2019-05-22T06:14:24.999Z,74.36
2019-05-22T06:19:31.132Z,74.37
2019-05-22T06:24:59.608Z,74.26
2019-05-22T06:30:13.118Z,74.14
2019-05-22T06:35:16.691Z,74.08
2019-05-22T06:40:20.666Z,73.29
2019-05-22T06:45:23.195Z,73.59
2019-05-22T06:50:26.461Z,73.68
2019-05-22T06:55:29.023Z,73.57
2019-05-22T07:00:31.825Z,73.37
2019-05-22T07:05:34.368Z,73.85
2019-05-22T07:10:38.607Z,72.86
2019-05-22T07:15:45.772Z,72.50
2019-05-22T07:20:49.864Z,73.02
2019-05-22T07:25:54.370Z,72.61
2019-05-22T07:30:57.665Z,73.11
2019-05-22T07:36:17.288Z,73.21
2019-05-22T07:41:05.324Z,72.63
2019-05-22T07:46:08.068Z,72.54
2019-05-22T07:51:11.868Z,72.10
2019-05-22T07:56:14.865Z,72.07
2019-05-22T08:01:18.810Z,71.85
2019-05-22T08:06:22.301Z,71.78
2019-05-22T08:11:25.628Z,72.12
2019-05-22T08:16:29.154Z,71.51
2019-05-22T08:21:32.483Z,71.68
2019-05-22T08:26:51.634Z,71.81
2019-05-22T08:31:40.888Z,71.51
2019-05-22T08:36:48.082Z,71.03
2019-05-22T08:41:52.810Z,71.27
2019-05-22T08:46:56.291Z,71.51
2019-05-22T08:51:59.790Z,71.55
2019-05-22T08:57:03.730Z,72.14
2019-05-22T09:02:08.385Z,72.18
2019-05-22T09:07:11.005Z,72.05
2019-05-22T09:12:16.080Z,71.80
2019-05-22T09:17:20.637Z,71.51
2019-05-22T09:22:37.830Z,71.37
2019-05-22T09:27:28.517Z,71.47
2019-05-22T09:32:31.755Z,70.63
2019-05-22T09:37:34.259Z,71.03
2019-05-22T09:42:37.590Z,70.44
2019-05-22T09:47:40.221Z,70.71
2019-05-22T09:52:56.809Z,70.97
2019-05-22T09:57:52.106Z,70.69
2019-05-22T10:02:54.433Z,70.94
2019-05-22T10:08:01.625Z,70.72
2019-05-22T10:13:05.411Z,70.70
2019-05-22T10:18:08.330Z,70.76
2019-05-22T10:23:16.111Z,70.23
2019-05-22T10:28:16.320Z,70.51
2019-05-22T10:33:19.158Z,70.43
2019-05-22T10:38:22.672Z,70.16
2019-05-22T10:43:26.172Z,70.45
2019-05-22T10:48:28.948Z,70.37
2019-05-22T10:53:34.208Z,70.12
2019-05-22T10:58:36.577Z,70.19
2019-05-22T11:03:39.398Z,70.08
2019-05-22T11:08:43.437Z,70.00
2019-05-22T11:14:00.782Z,69.90
2019-05-22T11:18:51.953Z,70.31
2019-05-22T11:23:54.378Z,69.91
2019-05-22T11:28:56.900Z,70.20
2019-05-22T11:33:59.329Z,69.93
2019-05-22T11:39:01.948Z,69.89
2019-05-22T11:44:06.181Z,69.33
2019-05-22T11:49:09.338Z,69.18
2019-05-22T11:54:13.069Z,69.14
2019-05-22T11:59:15.622Z,69.33
2019-05-22T12:04:19.345Z,69.62
2019-05-22T12:09:22.395Z,69.82
2019-05-22T12:14:25.455Z,69.90
2019-05-22T12:19:30.251Z,69.88
2019-05-22T12:24:37.410Z,69.96
2019-05-22T12:29:38.043Z,69.55
2019-05-22T12:34:41.149Z,70.08
2019-05-22T12:39:44.351Z,70.04
2019-05-22T12:44:47.149Z,69.29
2019-05-22T12:49:50.339Z,69.59
2019-05-22T12:54:54.089Z,69.60
2019-05-22T13:00:01.849Z,69.59
2019-05-22T13:05:02.361Z,69.91
2019-05-22T13:10:06.109Z,69.95
2019-05-22T13:15:10.810Z,69.60
2019-05-22T13:20:19.190Z,70.51
2019-05-22T13:25:33.187Z,70.59
2019-05-22T13:30:38.660Z,70.70
2019-05-22T13:35:42.707Z,70.98
2019-05-22T13:40:46.492Z,71.32
2019-05-22T13:45:50.525Z,71.33
2019-05-22T13:50:55.552Z,71.83
2019-05-22T13:55:58.399Z,71.95
2019-05-22T14:01:01.271Z,71.54
2019-05-22T14:06:04.240Z,71.53
2019-05-22T14:11:08.031Z,71.58
2019-05-22T14:16:11.116Z,71.79
2019-05-22T14:21:13.831Z,71.79
2019-05-22T14:26:16.337Z,71.83
2019-05-22T14:31:19.272Z,72.09
2019-05-22T14:36:22.980Z,71.82
2019-05-22T14:41:25.321Z,71.54
2019-05-22T14:46:29.436Z,71.49
2019-05-22T14:51:32.471Z,71.52
2019-05-22T14:56:36.160Z,70.89
2019-05-22T15:01:39.089Z,71.26
2019-05-22T15:06:42.678Z,71.30
2019-05-22T15:11:45.055Z,70.87
2019-05-22T15:16:47.582Z,70.22
2019-05-22T15:21:50.212Z,70.79
2019-05-22T15:26:53.052Z,70.33
2019-05-22T15:31:56.061Z,70.33
2019-05-22T15:36:58.980Z,70.31
2019-05-22T15:42:04.843Z,70.12
2019-05-22T15:47:07.959Z,70.10
2019-05-22T15:52:14.507Z,69.65
2019-05-22T15:57:19.376Z,70.00
2019-05-22T16:02:23.648Z,69.73
2019-05-22T16:07:28.012Z,69.56
2019-05-22T16:12:31.448Z,69.13
2019-05-22T16:17:41.371Z,69.48
2019-05-22T16:22:42.561Z,69.18
2019-05-22T16:27:46.979Z,69.08
2019-05-22T16:32:51.304Z,68.90
2019-05-22T16:37:57.516Z,68.77
2019-05-22T16:43:00.053Z,68.73
2019-05-22T16:48:04.893Z,68.57
2019-05-22T16:53:10.106Z,68.57
2019-05-22T16:58:14.317Z,68.83
2019-05-22T17:03:18.287Z,68.90
2019-05-22T17:08:21.771Z,68.51
2019-05-22T17:13:29.965Z,68.60
2019-05-22T17:18:47.267Z,68.61
2019-05-22T17:23:37.896Z,68.48
2019-05-22T17:28:40.586Z,68.38
2019-05-22T17:33:43.193Z,68.13
2019-05-22T17:38:46.707Z,68.19
2019-05-22T17:43:49.195Z,68.13
2019-05-22T17:48:53.009Z,68.13
2019-05-22T17:53:55.264Z,68.01
2019-05-22T17:58:57.683Z,68.07
2019-05-22T18:04:01.424Z,68.17
2019-05-22T18:09:06.976Z,68.09
2019-05-22T18:14:10.126Z,68.18
2019-05-22T18:19:12.531Z,68.40
2019-05-22T18:24:15.574Z,68.57
2019-05-22T18:29:18.679Z,68.83
2019-05-22T18:34:21.220Z,68.91
2019-05-22T18:39:25.041Z,69.09
2019-05-22T18:44:28.129Z,69.21
2019-05-22T18:49:31.309Z,69.39
2019-05-22T18:54:33.519Z,68.95
2019-05-22T18:59:35.741Z,68.99
2019-05-22T19:04:38.401Z,68.71
2019-05-22T19:09:41.537Z,68.26
2019-05-22T19:14:44.092Z,68.39
2019-05-22T19:19:47.986Z,68.18
2019-05-22T19:24:51.216Z,67.56
2019-05-22T19:29:54.231Z,67.45
2019-05-22T19:34:56.883Z,67.09
2019-05-22T19:39:59.969Z,66.91
2019-05-22T19:45:05.231Z,66.74
2019-05-22T19:50:22.877Z,66.57
2019-05-22T19:55:18.648Z,66.34
2019-05-22T20:00:21.562Z,65.80
2019-05-22T20:05:24.932Z,65.96
2019-05-22T20:10:27.390Z,65.91
2019-05-22T20:15:29.984Z,65.70
2019-05-22T20:20:32.645Z,65.12
2019-05-22T20:25:35.154Z,64.91
2019-05-22T20:30:37.649Z,64.87
2019-05-22T20:35:40.955Z,64.56
2019-05-22T20:40:44.258Z,64.14
2019-05-22T20:45:47.569Z,64.03
2019-05-22T20:50:50.399Z,64.02
2019-05-22T20:55:54.126Z,63.83
2019-05-22T21:00:57.755Z,63.86
2019-05-22T21:06:02.530Z,63.70
2019-05-22T21:11:07.953Z,63.82
2019-05-22T21:16:12.301Z,63.59
2019-05-22T21:21:14.951Z,63.57
2019-05-22T21:26:18.289Z,63.67
2019-05-22T21:31:21.127Z,63.80
2019-05-22T21:36:24.015Z,63.53
2019-05-22T21:41:26.720Z,63.85
2019-05-22T21:46:29.980Z,63.92
2019-05-22T21:51:33.946Z,63.93
2019-05-22T21:56:37.460Z,64.01
2019-05-22T22:01:54.922Z,63.85
2019-05-22T22:06:59.257Z,64.19
2019-05-22T22:12:03.979Z,64.42
2019-05-22T22:17:09.509Z,64.58
2019-05-22T22:22:19.467Z,64.60
2019-05-22T22:27:22.130Z,64.78
2019-05-22T22:32:26.698Z,64.69
2019-05-22T22:37:30.555Z,64.92
2019-05-22T22:42:36.838Z,65.14
2019-05-22T22:47:42.481Z,65.39
2019-05-22T22:52:45.673Z,65.32
2019-05-22T22:57:51.160Z,65.67
2019-05-22T23:02:56.061Z,65.87
2019-05-22T23:07:59.065Z,65.95
2019-05-22T23:13:04.585Z,65.98
2019-05-22T23:18:08.080Z,66.04
2019-05-22T23:23:09.311Z,66.06
2019-05-22T23:28:12.321Z,66.08
2019-05-22T23:33:15.106Z,66.10
2019-05-22T23:38:17.722Z,65.86
2019-05-22T23:43:20.920Z,66.04
2019-05-22T23:48:26.995Z,66.08
2019-05-22T23:53:32.195Z,65.97
2019-05-22T23:58:49.916Z,65.86
